createdAt,value
2022-12-25T00:01:12.310Z,99441.97
2022-12-25T00:03:40.074Z,99449.50
2022-12-25T00:06:07.570Z,99456.03
2022-12-25T00:08:35.219Z,99464.66
2022-12-25T00:11:05.261Z,99461.59
2022-12-25T00:13:32.775Z,99476.63
2022-12-25T00:15:59.837Z,99474.13
2022-12-25T00:18:26.837Z,99481.94
2022-12-25T00:20:58.959Z,99487.50
2022-12-25T00:23:27.156Z,99490.97
2022-12-25T00:25:54.567Z,99495.28
2022-12-25T00:28:23.365Z,99500.00
2022-12-25T00:30:50.874Z,99501.94
2022-12-25T00:33:18.718Z,99501.94
2022-12-25T00:35:45.771Z,99509.75
2022-12-25T00:38:12.746Z,99508.50
2022-12-25T00:40:44.310Z,99512.53
2022-12-25T00:43:11.443Z,99513.94
2022-12-25T00:45:38.524Z,99516.84
2022-12-25T00:48:06.056Z,99523.91
2022-12-25T00:50:33.151Z,99532.13
2022-12-25T00:53:00.205Z,99528.25
2022-12-25T00:55:27.284Z,99530.88
2022-12-25T00:57:54.327Z,99540.88
2022-12-25T01:00:21.409Z,99541.13
2022-12-25T01:02:48.678Z,99545.19
2022-12-25T01:05:15.980Z,99549.78
2022-12-25T01:07:43.194Z,99545.88
2022-12-25T01:10:23.400Z,99554.78
2022-12-25T01:12:52.052Z,99564.25
2022-12-25T01:15:19.673Z,99557.81
2022-12-25T01:17:46.789Z,99572.00
2022-12-25T01:20:16.163Z,99568.06
2022-12-25T01:22:45.892Z,99568.63
2022-12-25T01:25:13.552Z,99567.50
2022-12-25T01:27:42.004Z,99564.13
2022-12-25T01:30:09.716Z,99565.19
2022-12-25T01:32:36.993Z,99574.66
2022-12-25T01:35:04.316Z,99569.81
2022-12-25T01:37:31.348Z,99576.34
2022-12-25T01:39:58.368Z,99585.53
2022-12-25T01:42:25.503Z,99593.75
2022-12-25T01:44:52.488Z,99594.03
2022-12-25T01:47:19.703Z,99592.63
2022-12-25T01:49:50.115Z,99610.16
2022-12-25T01:52:25.380Z,99600.53
2022-12-25T01:55:04.169Z,99608.88
2022-12-25T01:57:34.314Z,99618.59
2022-12-25T02:00:02.672Z,99612.16
2022-12-25T02:02:32.905Z,99612.16
2022-12-25T02:05:03.605Z,99619.38
2022-12-25T02:07:34.910Z,99615.88
2022-12-25T02:10:02.002Z,99623.81
2022-12-25T02:12:33.031Z,99622.66
2022-12-25T02:15:06.983Z,99619.31
2022-12-25T02:17:49.389Z,99621.50
2022-12-25T02:20:44.277Z,99630.53
2022-12-25T02:23:55.923Z,99641.97
2022-12-25T02:26:35.243Z,99643.34
2022-12-25T02:29:17.375Z,99641.78
2022-12-25T02:31:53.133Z,99654.84
2022-12-25T02:34:36.312Z,99653.91
2022-12-25T02:37:12.986Z,99663.75
2022-12-25T02:39:58.883Z,99662.06
2022-12-25T02:42:55.616Z,99660.19
2022-12-25T02:45:52.568Z,99665.72
2022-12-25T02:48:42.111Z,99678.66
2022-12-25T02:51:31.358Z,99668.28
2022-12-25T02:54:21.174Z,99673.72
2022-12-25T02:57:09.090Z,99684.63
2022-12-25T02:59:57.346Z,99695.19
2022-12-25T03:02:43.966Z,99688.25
2022-12-25T03:05:33.264Z,99691.63
2022-12-25T03:08:05.164Z,99698.13
2022-12-25T03:10:53.452Z,99704.09
2022-12-25T03:13:26.906Z,99701.47
2022-12-25T03:16:12.756Z,99702.22
2022-12-25T03:18:40.031Z,99702.94
2022-12-25T03:21:25.762Z,99696.84
2022-12-25T03:24:16.742Z,99707.03
2022-12-25T03:26:56.485Z,99714.38
2022-12-25T03:29:51.896Z,99720.84
2022-12-25T03:32:44.368Z,99718.78
2022-12-25T03:35:24.511Z,99723.22
2022-12-25T03:38:22.205Z,99724.06
2022-12-25T03:41:13.665Z,99738.13
2022-12-25T03:44:25.716Z,99742.06
2022-12-25T03:47:24.724Z,99743.00
2022-12-25T03:50:16.474Z,99729.72
2022-12-25T03:53:04.898Z,99729.81
2022-12-25T03:55:59.522Z,99739.44
2022-12-25T03:58:46.598Z,99747.84
2022-12-25T04:01:32.850Z,99752.28
2022-12-25T04:04:18.985Z,99754.78
2022-12-25T04:07:04.351Z,99758.63
2022-12-25T04:09:50.049Z,99753.59
2022-12-25T04:12:35.639Z,99762.94
2022-12-25T04:15:32.419Z,99761.38
2022-12-25T04:18:18.168Z,99776.00
2022-12-25T04:21:03.598Z,99778.06
2022-12-25T04:23:49.215Z,99774.44
2022-12-25T04:26:34.661Z,99778.41
2022-12-25T04:29:20.228Z,99778.53
2022-12-25T04:32:05.777Z,99784.75
2022-12-25T04:34:51.455Z,99791.47
2022-12-25T04:37:18.762Z,99788.34
2022-12-25T04:39:45.837Z,99794.94
2022-12-25T04:42:12.933Z,99793.16
2022-12-25T04:44:39.958Z,99785.25
2022-12-25T04:47:11.176Z,99795.53
2022-12-25T04:49:39.433Z,99797.22
2022-12-25T04:52:06.489Z,99801.66
2022-12-25T04:54:33.637Z,99810.63
2022-12-25T04:57:00.610Z,99810.53
2022-12-25T04:59:27.616Z,99822.38
2022-12-25T05:01:54.737Z,99822.88
2022-12-25T05:04:22.160Z,99822.03
2022-12-25T05:06:49.157Z,99829.09
2022-12-25T05:09:16.181Z,99829.84
2022-12-25T05:11:43.175Z,99840.84
2022-12-25T05:14:10.198Z,99834.63
2022-12-25T05:16:37.306Z,99844.22
2022-12-25T05:19:04.371Z,99847.91
2022-12-25T05:21:31.406Z,99857.13
2022-12-25T05:23:58.507Z,99863.22
2022-12-25T05:26:26.915Z,99867.91
2022-12-25T05:28:55.088Z,99873.06
2022-12-25T05:31:22.310Z,99874.16
2022-12-25T05:33:51.564Z,99875.84
2022-12-25T05:36:19.226Z,99883.00
2022-12-25T05:38:46.242Z,99888.75
2022-12-25T05:41:13.382Z,99894.25
2022-12-25T05:43:40.453Z,99897.25
2022-12-25T05:46:09.614Z,99903.38
2022-12-25T05:48:38.284Z,99910.06
2022-12-25T05:51:10.976Z,99912.63
2022-12-25T05:53:38.870Z,99918.13
2022-12-25T05:56:07.616Z,99908.03
2022-12-25T05:58:36.564Z,99913.81
2022-12-25T06:01:03.972Z,99931.94
2022-12-25T06:03:31.198Z,99928.81
2022-12-25T06:05:58.293Z,99925.19
2022-12-25T06:08:25.304Z,99928.56
2022-12-25T06:10:52.362Z,99938.63
2022-12-25T06:13:19.392Z,99933.47
2022-12-25T06:15:46.374Z,99950.22
2022-12-25T06:18:13.361Z,99944.47
2022-12-25T06:20:41.419Z,99951.31
2022-12-25T06:23:08.556Z,99950.59
2022-12-25T06:25:39.425Z,99950.34
2022-12-25T06:28:07.160Z,99953.72
2022-12-25T06:30:34.433Z,99947.34
2022-12-25T06:33:01.441Z,99956.84
2022-12-25T06:35:28.527Z,99960.44
2022-12-25T06:37:56.752Z,99958.78
2022-12-25T06:40:23.754Z,99959.84
2022-12-25T06:42:52.245Z,99963.59
2022-12-25T06:45:19.245Z,99969.31
2022-12-25T06:47:46.264Z,99973.38
2022-12-25T06:50:13.377Z,99985.59
2022-12-25T06:52:40.363Z,99974.97
2022-12-25T06:55:07.788Z,99984.22
2022-12-25T06:57:34.784Z,99984.69
2022-12-25T07:00:01.890Z,99981.81
2022-12-25T07:02:33.081Z,99988.53
2022-12-25T07:05:01.460Z,99991.16
2022-12-25T07:07:30.073Z,99993.66
2022-12-25T07:09:57.145Z,99986.13
2022-12-25T07:12:24.582Z,99995.22
2022-12-25T07:14:54.639Z,99991.53
2022-12-25T07:17:23.082Z,99989.41
2022-12-25T07:19:50.390Z,99985.78
2022-12-25T07:22:17.740Z,99985.19
2022-12-25T07:24:44.872Z,99995.75
2022-12-25T07:27:11.978Z,99996.81
2022-12-25T07:29:39.008Z,99993.19
2022-12-25T07:32:06.573Z,100010.00
2022-12-25T07:34:33.819Z,100013.22
2022-12-25T07:37:00.902Z,100012.47
2022-12-25T07:39:28.626Z,100015.50
2022-12-25T07:41:57.917Z,100021.50
2022-12-25T07:44:27.767Z,100025.94
2022-12-25T07:46:54.759Z,100031.16
2022-12-25T07:49:24.797Z,100038.72
2022-12-25T07:51:51.858Z,100047.09
2022-12-25T07:54:18.907Z,100053.94
2022-12-25T07:56:46.003Z,100053.44
2022-12-25T07:59:13.030Z,100054.28
2022-12-25T08:01:40.296Z,100055.13
2022-12-25T08:04:08.430Z,100049.56
2022-12-25T08:06:36.049Z,100049.69
2022-12-25T08:09:12.859Z,100064.44
2022-12-25T08:11:40.594Z,100071.69
2022-12-25T08:14:09.205Z,100072.84
2022-12-25T08:16:39.963Z,100070.19
2022-12-25T08:28:45.563Z,100050.97
2022-12-25T08:31:27.098Z,100084.75
2022-12-25T08:33:58.055Z,100097.59
2022-12-25T08:36:25.549Z,100094.97
2022-12-25T08:39:00.432Z,100100.00
2022-12-25T08:41:30.587Z,100097.59
2022-12-25T08:43:58.960Z,100108.03
2022-12-25T08:46:26.091Z,100095.56
2022-12-25T08:49:49.004Z,100097.16
2022-12-25T08:52:10.342Z,100094.75
2022-12-25T08:54:37.454Z,100101.69
2022-12-25T08:57:04.614Z,100100.84
2022-12-25T08:59:31.667Z,100109.69
2022-12-25T09:01:59.067Z,100102.88
2022-12-25T09:04:26.226Z,100106.19
2022-12-25T09:06:56.092Z,100101.59
2022-12-25T09:09:27.748Z,100114.19
2022-12-25T09:11:55.186Z,100113.88
2022-12-25T09:14:22.427Z,100110.19
2022-12-25T09:16:52.580Z,100120.31
2022-12-25T09:19:19.674Z,100121.78
2022-12-25T09:21:46.828Z,100133.84
2022-12-25T09:24:13.838Z,100133.84
2022-12-25T09:26:40.932Z,100140.16
2022-12-25T09:29:07.959Z,100148.91
2022-12-25T09:31:35.289Z,100145.44
2022-12-25T09:34:03.057Z,100151.22
2022-12-25T09:36:30.386Z,100151.94
2022-12-25T09:38:57.527Z,100144.16
2022-12-25T09:41:28.387Z,100144.69
2022-12-25T09:44:06.045Z,100156.19
2022-12-25T09:46:41.336Z,100148.22
2022-12-25T09:49:19.982Z,100149.47
2022-12-25T09:51:53.724Z,100148.50
2022-12-25T09:54:46.813Z,100153.44
2022-12-25T09:57:14.982Z,100161.69
2022-12-25T09:59:47.589Z,100151.97
2022-12-25T10:02:37.045Z,100154.31
2022-12-25T10:05:41.231Z,100148.59
2022-12-25T10:08:11.086Z,100166.75
2022-12-25T10:11:11.924Z,100159.16
2022-12-25T10:14:16.116Z,100162.53
2022-12-25T10:17:04.428Z,100166.75
2022-12-25T10:19:41.727Z,100170.34
2022-12-25T10:22:33.892Z,100173.91
2022-12-25T10:33:02.301Z,100179.50
2022-12-25T11:04:25.566Z,100189.06
2022-12-25T11:07:31.655Z,100190.56
2022-12-25T11:10:06.456Z,100195.53
2022-12-25T11:12:38.463Z,100192.97
2022-12-25T11:15:27.812Z,100201.31
2022-12-25T11:17:54.934Z,100209.94
2022-12-25T11:20:28.406Z,100208.28
2022-12-25T11:22:55.803Z,100202.88
2022-12-25T11:25:26.937Z,100201.72
2022-12-25T11:28:05.520Z,100208.78
2022-12-25T11:30:33.983Z,100206.16
2022-12-25T11:33:11.078Z,100213.94
2022-12-25T11:35:47.881Z,100201.09
2022-12-25T11:38:14.897Z,100220.69
2022-12-25T11:40:52.577Z,100207.63
2022-12-25T11:43:25.448Z,100229.47
2022-12-25T11:46:06.802Z,100219.63
2022-12-25T11:49:06.247Z,100223.00
2022-12-25T11:51:38.875Z,100223.84
2022-12-25T11:54:24.445Z,100226.38
2022-12-25T11:56:52.277Z,100219.41
2022-12-25T11:59:32.334Z,100230.38
2022-12-25T12:02:04.325Z,100233.97
2022-12-25T12:04:43.144Z,100236.28
2022-12-25T12:07:27.023Z,100245.72
2022-12-25T12:10:09.182Z,100245.63
2022-12-25T12:13:00.703Z,100242.22
2022-12-25T12:15:48.751Z,100245.09
2022-12-25T12:18:27.816Z,100255.97
2022-12-25T12:21:19.334Z,100267.34
2022-12-25T12:24:16.020Z,100274.50
2022-12-25T12:27:02.423Z,100267.88
2022-12-25T12:29:55.692Z,100267.44
2022-12-25T12:32:47.882Z,100275.56
2022-12-25T12:35:22.520Z,100272.41
2022-12-25T12:37:53.890Z,100266.53
2022-12-25T12:40:37.462Z,100270.94
2022-12-25T12:43:07.362Z,100272.63
2022-12-25T12:45:38.474Z,100277.06
2022-12-25T12:48:16.815Z,100271.88
2022-12-25T12:50:43.947Z,100279.91
2022-12-25T12:53:23.573Z,100274.09
2022-12-25T12:55:52.640Z,100264.09
2022-12-25T12:58:34.504Z,100275.47
2022-12-25T13:01:13.818Z,100278.75
2022-12-25T13:03:47.122Z,100287.56
2022-12-25T13:06:38.303Z,100286.84
2022-12-25T13:09:23.897Z,100287.28
2022-12-25T13:11:54.046Z,100299.41
2022-12-25T13:14:38.160Z,100294.97
2022-12-25T13:17:09.028Z,100300.03
2022-12-25T13:19:38.766Z,100300.03
2022-12-25T13:22:07.233Z,100310.56
2022-12-25T13:24:36.890Z,100310.16
2022-12-25T13:27:23.593Z,100312.78
2022-12-25T13:29:51.005Z,100309.41
2022-12-25T13:32:28.799Z,100319.63
2022-12-25T13:34:56.394Z,100314.66
2022-12-25T13:37:28.445Z,100315.91
2022-12-25T13:40:01.635Z,100323.63
2022-12-25T13:42:33.822Z,100323.41
2022-12-25T13:45:20.120Z,100321.31
2022-12-25T13:47:55.225Z,100317.56
2022-12-25T13:50:30.000Z,100325.69
2022-12-25T13:53:09.641Z,100333.91
2022-12-25T13:55:37.078Z,100327.66
2022-12-25T13:58:06.718Z,100327.13
2022-12-25T14:00:45.511Z,100329.00
2022-12-25T14:03:22.477Z,100333.88
2022-12-25T14:06:01.840Z,100327.13
2022-12-25T14:08:41.340Z,100339.75
2022-12-25T14:26:43.334Z,100330.47
2022-12-25T14:44:08.692Z,100368.66
2022-12-25T14:46:39.275Z,100356.59
2022-12-25T14:49:21.113Z,100368.56
2022-12-25T14:51:48.213Z,100370.03
2022-12-25T14:54:22.644Z,100368.47
2022-12-25T14:56:56.306Z,100373.34
2022-12-25T14:59:27.278Z,100366.50
2022-12-25T15:02:03.556Z,100361.94
2022-12-25T15:04:31.431Z,100366.50
2022-12-25T15:07:07.479Z,100365.84
2022-12-25T15:09:38.053Z,100363.16
2022-12-25T15:12:09.452Z,100373.34
2022-12-25T15:14:38.573Z,100368.38
2022-12-25T15:17:05.925Z,100378.25
2022-12-25T15:19:38.664Z,100378.25
2022-12-25T15:22:06.666Z,100380.56
2022-12-25T15:24:33.660Z,100380.75
2022-12-25T15:27:01.034Z,100378.41
2022-12-25T15:32:24.258Z,100380.28
2022-12-25T15:34:51.414Z,100383.50
2022-12-25T15:37:19.070Z,100387.19
2022-12-25T15:39:46.739Z,100388.03
2022-12-25T15:42:16.902Z,100394.53
2022-12-25T15:44:44.786Z,100391.31
2022-12-25T15:47:13.267Z,100392.72
2022-12-25T15:49:40.342Z,100393.41
2022-12-25T15:52:10.090Z,100404.66
2022-12-25T15:54:37.116Z,100404.59
2022-12-25T15:57:06.751Z,100405.88
2022-12-25T15:59:34.333Z,100403.56
2022-12-25T16:02:02.269Z,100409.84
2022-12-25T16:04:31.425Z,100420.06
2022-12-25T16:06:59.698Z,100418.09
2022-12-25T16:09:27.710Z,100426.47
2022-12-25T16:11:54.900Z,100421.94
2022-12-25T16:14:22.029Z,100427.84
2022-12-25T16:16:49.053Z,100417.03
2022-12-25T16:19:19.155Z,100418.25
2022-12-25T16:21:47.204Z,100419.09
2022-12-25T16:24:14.686Z,100430.91
2022-12-25T16:26:42.181Z,100422.28
2022-12-25T16:29:10.345Z,100420.78
2022-12-25T16:31:37.937Z,100422.69
2022-12-25T16:34:06.697Z,100422.19
2022-12-25T16:36:34.689Z,100429.03
2022-12-25T16:39:02.619Z,100430.53
2022-12-25T16:41:29.676Z,100428.66
2022-12-25T16:43:56.695Z,100430.31
2022-12-25T16:46:23.945Z,100431.09
2022-12-25T16:48:51.043Z,100433.53
2022-12-25T16:51:20.489Z,100449.13
2022-12-25T16:53:48.074Z,100442.16
2022-12-25T16:56:39.728Z,100453.16
2022-12-25T16:59:06.750Z,100452.75
2022-12-25T17:01:33.920Z,100448.97
2022-12-25T17:04:03.986Z,100445.38
2022-12-25T17:06:31.135Z,100446.53
2022-12-25T17:09:00.426Z,100446.22
2022-12-25T17:19:31.848Z,100449.81
2022-12-25T17:22:00.001Z,100453.22
2022-12-25T17:29:21.742Z,100453.81
2022-12-25T17:31:49.673Z,100457.16
2022-12-25T17:34:16.806Z,100457.34
2022-12-25T17:36:43.835Z,100468.25
2022-12-25T17:39:11.744Z,100469.84
2022-12-25T17:41:38.818Z,100472.75
2022-12-25T17:44:05.943Z,100466.56
2022-12-25T17:46:33.102Z,100466.00
2022-12-25T17:49:01.548Z,100477.75
2022-12-25T17:51:30.796Z,100471.44
2022-12-25T17:54:03.418Z,100467.09
2022-12-25T17:56:56.716Z,100475.00
2022-12-25T17:59:28.607Z,100468.06
2022-12-25T18:01:56.068Z,100478.41
2022-12-25T18:04:33.420Z,100484.31
2022-12-25T18:07:00.422Z,100486.94
2022-12-25T18:09:27.442Z,100485.66
2022-12-25T18:11:54.717Z,100485.75
2022-12-25T18:14:22.040Z,100495.56
2022-12-25T18:16:49.246Z,100478.72
2022-12-25T18:19:18.606Z,100481.63
2022-12-25T18:21:45.743Z,100487.34
2022-12-25T18:24:12.744Z,100481.44
2022-12-25T18:26:39.752Z,100487.66
2022-12-25T18:29:07.207Z,100490.81
2022-12-25T18:31:34.615Z,100495.44
2022-12-25T18:34:03.603Z,100498.00
2022-12-25T18:36:31.407Z,100498.50
2022-12-25T18:38:59.491Z,100506.63
2022-12-25T18:41:28.563Z,100511.25
2022-12-25T18:43:56.158Z,100515.97
2022-12-25T18:46:27.820Z,100506.28
2022-12-25T18:48:57.500Z,100523.75
2022-12-25T18:51:26.742Z,100529.03
2022-12-25T18:53:58.247Z,100523.97
2022-12-25T18:56:25.182Z,100517.00
2022-12-25T18:58:52.439Z,100524.34
2022-12-25T19:01:24.412Z,100520.56
2022-12-25T19:03:56.044Z,100524.78
2022-12-25T19:06:32.871Z,100523.88
2022-12-25T19:09:00.218Z,100526.59
2022-12-25T19:11:27.596Z,100531.84
2022-12-25T19:13:54.764Z,100524.53
2022-12-25T19:16:22.041Z,100528.94
2022-12-25T19:18:49.422Z,100534.88
2022-12-25T19:21:16.603Z,100529.47
2022-12-25T19:23:43.840Z,100538.16
2022-12-25T19:26:11.730Z,100544.44
2022-12-25T19:28:40.229Z,100547.00
2022-12-25T19:31:10.125Z,100547.19
2022-12-25T19:33:40.621Z,100550.09
2022-12-25T19:36:12.731Z,100550.88
2022-12-25T19:38:40.784Z,100555.19
2022-12-25T19:41:15.899Z,100555.19
2022-12-25T19:43:45.806Z,100567.59
2022-12-25T19:46:19.976Z,100567.59
2022-12-25T19:48:47.798Z,100567.06
2022-12-25T19:51:27.376Z,100565.44
2022-12-25T19:58:35.210Z,100538.13
2022-12-25T20:01:06.377Z,100557.94
2022-12-25T20:03:40.215Z,100556.72
2022-12-25T20:06:20.009Z,100561.03
2022-12-25T20:08:48.657Z,100561.88
2022-12-25T20:11:16.761Z,100557.56
2022-12-25T20:13:44.052Z,100570.03
2022-12-25T20:16:11.342Z,100556.22
2022-12-25T20:18:39.342Z,100567.97
2022-12-25T20:21:10.756Z,100574.19
2022-12-25T20:23:37.899Z,100559.53
2022-12-25T20:26:05.737Z,100566.75
2022-12-25T20:28:36.145Z,100572.00
2022-12-25T20:31:17.944Z,100572.00
2022-12-25T20:33:48.877Z,100569.31
2022-12-25T20:36:16.485Z,100572.84
2022-12-25T20:38:46.834Z,100567.78
2022-12-25T20:41:32.201Z,100570.03
2022-12-25T20:43:59.910Z,100573.53
2022-12-25T20:46:27.871Z,100587.34
2022-12-25T20:48:55.128Z,100588.47
2022-12-25T20:51:24.993Z,100589.41
2022-12-25T20:53:52.809Z,100584.16
2022-12-25T20:56:24.268Z,100585.94
2022-12-25T20:58:59.776Z,100585.56
2022-12-25T21:01:28.492Z,100588.47
2022-12-25T21:03:56.137Z,100578.13
2022-12-25T21:06:24.104Z,100588.84
2022-12-25T21:08:51.179Z,100593.38
2022-12-25T21:11:18.382Z,100607.47
2022-12-25T21:13:46.297Z,100599.13
2022-12-25T21:16:20.132Z,100596.94
2022-12-25T21:18:48.849Z,100606.19
2022-12-25T21:22:22.480Z,100603.63
2022-12-25T21:24:52.102Z,100610.59
2022-12-25T21:30:00.099Z,100604.47
2022-12-25T21:33:01.281Z,100587.34
2022-12-25T21:35:28.317Z,100604.00
2022-12-25T21:37:55.321Z,100600.81
2022-12-25T21:40:22.511Z,100606.94
2022-12-25T21:42:49.541Z,100609.66
2022-12-25T21:45:16.616Z,100608.97
2022-12-25T21:48:02.295Z,100613.50
2022-12-25T21:50:49.069Z,100602.03
2022-12-25T21:53:18.152Z,100611.06
2022-12-25T21:56:04.397Z,100606.84
2022-12-25T21:58:31.906Z,100607.78
2022-12-25T22:01:03.816Z,100599.88
2022-12-25T22:03:30.973Z,100600.53
2022-12-25T22:06:21.388Z,100600.72
2022-12-25T22:08:49.051Z,100613.69
2022-12-25T22:11:34.848Z,100609.16
2022-12-25T22:14:20.657Z,100612.66
2022-12-25T22:17:27.265Z,100612.28
2022-12-25T22:19:55.418Z,100616.78
2022-12-25T22:22:25.482Z,100602.84
2022-12-25T22:24:59.489Z,100607.09
2022-12-25T22:27:31.427Z,100600.53
2022-12-25T22:29:58.934Z,100608.59
2022-12-25T22:32:27.252Z,100603.88
2022-12-25T22:34:54.814Z,100605.59
2022-12-25T22:37:23.179Z,100612.16
2022-12-25T22:39:50.280Z,100606.25
2022-12-25T22:42:17.320Z,100612.38
2022-12-25T22:44:44.551Z,100618.28
2022-12-25T22:47:11.717Z,100609.34
2022-12-25T22:49:39.521Z,100613.28
2022-12-25T22:52:08.292Z,100608.41
2022-12-25T22:54:35.376Z,100613.13
2022-12-25T22:57:02.523Z,100612.75
2022-12-25T22:59:30.114Z,100608.25
2022-12-25T23:01:57.300Z,100618.13
2022-12-25T23:04:24.701Z,100619.88
2022-12-25T23:06:51.858Z,100627.13
2022-12-25T23:09:24.812Z,100626.59
2022-12-25T23:11:52.075Z,100619.34
2022-12-25T23:14:37.531Z,100631.75
2022-12-25T23:17:05.225Z,100643.34
2022-12-25T23:19:50.770Z,100641.91
2022-12-25T23:22:36.287Z,100642.09
2022-12-25T23:25:22.047Z,100640.41
2022-12-25T23:27:49.092Z,100638.91
2022-12-25T23:30:16.881Z,100641.44
2022-12-25T23:32:44.521Z,100650.28
2022-12-25T23:35:12.895Z,100655.44
2022-12-25T23:37:39.923Z,100650.94
2022-12-25T23:40:07.894Z,100650.00
2022-12-25T23:42:34.975Z,100653.69
2022-12-25T23:45:01.953Z,100650.09
2022-12-25T23:47:31.032Z,100658.66
2022-12-25T23:49:58.068Z,100654.53
2022-12-25T23:52:25.156Z,100656.41
2022-12-25T23:54:53.016Z,100666.56
2022-12-25T23:57:21.251Z,100664.03
2022-12-25T23:59:48.279Z,100667.50
